Time;durP1;ratioP1;P1;durP2;ratioP2;P2;SDS_P1;SDS_P2;PMS_P1;PMS_P2;Temp;Humidity;BMP_temperature;BMP_pressure;BME280_temperature;BME280_humidity;BME280_pressure;Samples;Min_cycle;Max_cycle;Signal;HPM_P1;HPM_P2
2022/11/04 00:02:22;;;;;;;15.40;7.90;;;9.10;91.40;;;;;;5027564;28;20477;-84
2022/11/04 00:04:47;;;;;;;11.38;6.38;;;9.10;91.30;;;;;;5010864;28;20041;-87
2022/11/04 00:09:57;;;;;;;10.25;6.07;;;9.10;91.30;;;;;;5026446;28;20032;-83
2022/11/04 00:12:23;;;;;;;12.23;5.40;;;9.10;91.30;;;;;;5027791;28;20037;-85
2022/11/04 00:14:49;;;;;;;9.68;4.40;;;9.10;91.30;;;;;;5030802;28;20620;-83
2022/11/04 00:17:21;;;;;;;9.98;5.30;;;9.00;91.10;;;;;;5022773;28;20061;-86
2022/11/04 00:33:52;;;;;;;9.43;4.40;;;9.10;90.90;;;;;;5025812;28;20060;-85
2022/11/04 00:36:17;;;;;;;10.77;4.95;;;9.10;90.70;;;;;;5011007;28;20461;-82
2022/11/04 00:38:43;;;;;;;9.38;4.80;;;9.10;90.60;;;;;;5028635;28;20053;-85
2022/11/04 00:41:28;;;;;;;10.63;3.97;;;9.20;90.50;;;;;;5028195;28;20116;-85
2022/11/04 00:44:03;;;;;;;9.75;4.85;;;9.20;90.40;;;;;;5008449;28;20041;-87
2022/11/04 00:46:31;;;;;;;10.15;4.30;;;9.20;90.30;;;;;;5026328;28;20148;-83
2022/11/04 00:48:57;;;;;;;10.55;5.47;;;9.30;90.20;;;;;;5006250;28;20091;-84
2022/11/04 00:51:23;;;;;;;10.32;4.70;;;9.30;90.20;;;;;;5023477;28;20422;-85
2022/11/04 00:53:49;;;;;;;12.25;4.20;;;9.30;90.10;;;;;;5027323;28;20037;-84
2022/11/04 00:56:15;;;;;;;10.80;4.22;;;9.30;90.00;;;;;;5016222;28;20504;-84
2022/11/04 00:58:41;;;;;;;7.93;3.55;;;9.30;89.90;;;;;;5009064;28;20121;-84
2022/11/04 01:01:08;;;;;;;8.98;3.70;;;9.40;89.80;;;;;;5023916;28;20187;-83
2022/11/04 01:03:34;;;;;;;8.60;3.75;;;9.40;89.70;;;;;;5026409;28;20050;-85
2022/11/04 01:05:59;;;;;;;12.23;3.80;;;9.40;89.70;;;;;;5031102;28;20036;-88
2022/11/04 01:08:25;;;;;;;14.55;4.38;;;9.40;89.60;;;;;;5022956;28;20121;-84
2022/11/04 01:10:50;;;;;;;9.48;3.53;;;9.40;89.70;;;;;;5028249;28;20048;-85
2022/11/04 01:13:16;;;;;;;8.85;3.30;;;9.40;89.70;;;;;;5027175;28;20385;-85
2022/11/04 01:15:42;;;;;;;12.55;3.03;;;9.50;89.70;;;;;;5028670;28;20052;-86
2022/11/04 01:18:07;;;;;;;9.38;3.22;;;9.50;89.60;;;;;;5027479;28;20044;-83
2022/11/04 01:20:33;;;;;;;11.90;2.85;;;9.40;89.60;;;;;;5024496;28;20069;-84
2022/11/04 01:22:58;;;;;;;10.88;3.20;;;9.40;89.60;;;;;;5026296;28;20049;-87
2022/11/04 01:25:24;;;;;;;11.93;3.63;;;9.40;89.50;;;;;;5021916;28;20055;-83
2022/11/04 01:27:50;;;;;;;13.90;2.78;;;9.30;89.60;;;;;;5025675;28;20481;-86
2022/11/04 01:30:16;;;;;;;10.13;2.72;;;9.30;89.70;;;;;;5028482;28;20041;-85
2022/11/04 01:32:41;;;;;;;11.15;2.83;;;9.30;89.80;;;;;;5029236;28;20038;-82
2022/11/04 01:35:07;;;;;;;11.60;2.95;;;9.30;89.90;;;;;;5024086;28;20038;-83
2022/11/04 01:37:33;;;;;;;8.85;2.47;;;9.30;89.90;;;;;;5025887;28;20045;-83
2022/11/04 01:39:59;;;;;;;11.10;3.08;;;9.30;89.80;;;;;;5027195;28;20076;-84
2022/11/04 01:42:25;;;;;;;13.82;3.20;;;9.20;89.90;;;;;;5025848;28;20060;-83
2022/11/04 01:44:53;;;;;;;8.23;2.72;;;9.20;89.90;;;;;;5018578;28;20041;-87
2022/11/04 01:47:25;;;;;;;10.63;3.13;;;9.20;90.00;;;;;;5043976;28;20056;-82
2022/11/04 01:49:56;;;;;;;10.40;3.20;;;9.20;90.00;;;;;;5025783;28;20030;-84
2022/11/04 01:52:36;;;;;;;10.80;3.50;;;9.10;90.10;;;;;;5029038;28;20048;-83
2022/11/04 01:55:07;;;;;;;13.70;3.85;;;9.10;90.20;;;;;;5022663;28;20037;-84
2022/11/04 01:57:38;;;;;;;13.25;4.45;;;9.10;90.20;;;;;;5028030;28;20445;-82
2022/11/04 02:00:06;;;;;;;10.27;3.70;;;9.20;90.30;;;;;;5016139;28;20637;-84
2022/11/04 02:02:32;;;;;;;14.70;4.68;;;9.20;90.20;;;;;;5025867;28;20048;-86
2022/11/04 02:04:58;;;;;;;15.15;4.30;;;9.10;90.30;;;;;;5028316;28;20038;-83
2022/11/04 02:07:24;;;;;;;12.75;4.32;;;9.10;90.30;;;;;;5024193;28;20088;-84
2022/11/04 02:09:50;;;;;;;13.35;4.32;;;9.20;90.20;;;;;;5010519;28;20038;-84
2022/11/04 02:15:01;;;;;;;13.48;5.05;;;9.10;90.20;;;;;;5022769;28;20064;-83
2022/11/04 02:17:57;;;;;;;14.95;4.93;;;9.10;90.30;;;;;;5025577;28;20137;-82
2022/11/04 02:21:13;;;;;;;12.98;5.00;;;9.10;90.40;;;;;;5031232;28;20049;-85
2022/11/04 02:24:17;;;;;;;;;;;9.10;90.40;;;;;;4999762;28;20497;-83
2022/11/04 02:27:00;;;;;;;14.00;5.25;;;9.10;90.60;;;;;;4964515;28;19902;-89
2022/11/04 02:29:55;;;;;;;18.45;5.20;;;9.10;90.60;;;;;;4961697;28;20035;-91
2022/11/04 02:32:40;;;;;;;23.20;6.00;;;9.10;90.60;;;;;;5029040;28;20547;-91
2022/11/04 02:35:20;;;;;;;15.77;5.03;;;9.20;90.50;;;;;;5029277;28;20471;-83
2022/11/04 02:38:14;;;;;;;15.63;5.75;;;9.10;90.40;;;;;;5022655;28;20073;-86
2022/11/04 02:41:12;;;;;;;15.38;5.40;;;9.20;90.40;;;;;;5027627;28;20445;-86
2022/11/04 02:43:48;;;;;;;18.05;6.18;;;9.20;90.40;;;;;;5011685;28;20068;-84
2022/11/04 02:46:21;;;;;;;15.18;6.15;;;9.20;90.30;;;;;;5025805;28;20592;-89
2022/11/04 02:48:54;;;;;;;21.38;5.63;;;9.20;90.40;;;;;;5030302;28;20021;-84
2022/11/04 02:51:38;;;;;;;17.55;5.63;;;9.20;90.30;;;;;;5029417;28;20040;-83
2022/11/04 02:54:27;;;;;;;16.95;5.53;;;9.20;90.50;;;;;;5015816;28;20037;-84
2022/11/04 02:56:55;;;;;;;14.00;5.57;;;9.20;90.40;;;;;;5030643;28;20109;-84
2022/11/04 02:59:46;;;;;;;15.10;4.85;;;9.20;90.50;;;;;;5023720;28;20045;-83
2022/11/04 03:02:21;;;;;;;15.55;5.32;;;9.20;90.50;;;;;;5017177;28;20025;-82
2022/11/04 03:04:50;;;;;;;14.93;4.97;;;9.30;90.50;;;;;;5021594;28;20129;-83
2022/11/04 03:07:23;;;;;;;18.55;5.03;;;9.20;90.40;;;;;;5020125;28;20495;-87
2022/11/04 03:09:53;;;;;;;14.15;5.05;;;9.20;90.30;;;;;;5027998;28;20033;-84
2022/11/04 03:12:27;;;;;;;17.60;5.03;;;9.30;90.40;;;;;;5038578;28;20097;-84
2022/11/04 03:15:02;;;;;;;16.83;5.27;;;9.30;90.40;;;;;;5022469;28;20109;-86
2022/11/04 03:17:49;;;;;;;20.55;5.25;;;9.30;90.30;;;;;;5047259;28;20140;-83
2022/11/04 03:20:24;;;;;;;14.45;4.95;;;9.40;90.30;;;;;;5041702;28;20050;-85
2022/11/04 03:22:54;;;;;;;;;;;9.40;90.10;;;;;;5029919;28;20045;-83
2022/11/04 03:25:24;;;;;;;14.30;5.00;;;9.40;90.00;;;;;;5026853;28;20411;-85
2022/11/04 03:28:13;;;;;;;19.77;6.45;;;9.40;90.10;;;;;;5032518;28;20032;-85
2022/11/04 03:30:44;;;;;;;12.07;5.28;;;9.40;90.00;;;;;;5030145;28;20041;-82
2022/11/04 03:33:49;;;;;;;16.13;5.13;;;9.40;90.10;;;;;;5033372;28;20122;-85
2022/11/04 03:36:15;;;;;;;12.83;5.43;;;9.40;90.20;;;;;;5025897;28;20033;-86
2022/11/04 03:38:41;;;;;;;14.82;5.68;;;9.40;90.20;;;;;;5032811;28;20910;-86
2022/11/04 03:41:18;;;;;;;13.18;5.10;;;9.40;90.10;;;;;;5015526;28;20038;-86
2022/11/04 03:43:43;;;;;;;15.18;5.38;;;9.50;90.10;;;;;;5010721;28;20037;-86
2022/11/04 03:46:10;;;;;;;16.15;5.63;;;9.40;90.10;;;;;;5027115;28;21239;-84
2022/11/04 03:48:35;;;;;;;17.70;6.03;;;9.50;90.10;;;;;;5027999;28;20322;-85
2022/11/04 03:51:01;;;;;;;16.42;5.53;;;9.50;90.10;;;;;;5011019;28;20033;-88
2022/11/04 03:53:28;;;;;;;14.88;5.38;;;9.50;90.20;;;;;;5027837;28;20037;-82
2022/11/04 03:56:12;;;;;;;13.68;4.50;;;9.50;90.20;;;;;;5034151;28;20025;-83
2022/11/04 03:58:43;;;;;;;14.50;4.75;;;9.50;90.30;;;;;;5024247;28;20042;-84
2022/11/04 04:01:17;;;;;;;13.48;5.35;;;9.50;90.20;;;;;;5026914;28;20036;-83
2022/11/04 04:03:56;;;;;;;14.83;5.17;;;9.50;90.20;;;;;;5037530;28;20554;-83
2022/11/04 04:06:33;;;;;;;16.02;5.45;;;9.50;90.30;;;;;;5022358;28;20279;-83
2022/11/04 04:09:19;;;;;;;14.48;5.80;;;9.60;90.30;;;;;;5010195;28;20136;-85
2022/11/04 04:12:01;;;;;;;14.48;5.07;;;9.60;90.40;;;;;;5018123;28;20037;-84
2022/11/04 04:14:47;;;;;;;15.15;5.88;;;9.60;90.40;;;;;;5036349;28;20042;-83
2022/11/04 04:17:16;;;;;;;13.43;5.40;;;9.60;90.40;;;;;;5025619;28;20030;-84
2022/11/04 04:19:50;;;;;;;15.75;5.82;;;9.60;90.40;;;;;;5021706;28;20039;-83
2022/11/04 04:22:27;;;;;;;14.88;6.15;;;9.60;90.50;;;;;;5026336;28;20128;-84
2022/11/04 04:27:42;;;;;;;19.20;7.20;;;9.60;90.60;;;;;;5026856;28;20433;-83
2022/11/04 04:30:11;;;;;;;17.27;7.32;;;9.60;90.60;;;;;;5021615;28;20048;-84
2022/11/04 04:32:57;;;;;;;20.77;7.25;;;9.70;90.70;;;;;;5023301;28;20107;-85
2022/11/04 04:35:43;;;;;;;18.17;6.60;;;9.60;90.70;;;;;;5005786;28;20418;-86
2022/11/04 04:47:18;;;;;;;15.93;6.00;;;9.70;90.70;;;;;;5025269;28;20095;-84
2022/11/04 04:49:52;;;;;;;14.98;6.60;;;9.70;90.70;;;;;;5009710;28;20120;-86
2022/11/04 04:52:19;;;;;;;13.83;6.13;;;9.70;90.80;;;;;;5024958;28;20547;-85
2022/11/04 04:54:44;;;;;;;19.48;6.10;;;9.70;90.80;;;;;;5030087;28;20041;-86
2022/11/04 04:57:10;;;;;;;17.35;6.55;;;9.70;90.70;;;;;;5026446;28;20080;-83
2022/11/04 04:59:36;;;;;;;16.45;5.75;;;9.70;90.80;;;;;;5007737;28;20046;-84
2022/11/04 05:02:02;;;;;;;17.70;5.45;;;9.70;90.80;;;;;;5006365;28;20129;-84
2022/11/04 05:04:28;;;;;;;15.80;6.28;;;9.70;90.80;;;;;;5030494;28;20037;-84
2022/11/04 05:06:54;;;;;;;15.23;6.13;;;9.70;90.80;;;;;;5026093;28;20620;-83
2022/11/04 05:09:19;;;;;;;17.17;6.32;;;9.70;90.80;;;;;;5013258;28;20041;-84
2022/11/04 05:11:45;;;;;;;15.63;6.20;;;9.70;90.80;;;;;;5034535;28;20037;-84
2022/11/04 05:14:11;;;;;;;17.48;6.55;;;9.80;90.90;;;;;;5025266;28;20041;-86
2022/11/04 05:16:36;;;;;;;16.60;6.15;;;9.80;90.90;;;;;;5019254;28;20107;-83
2022/11/04 05:19:02;;;;;;;17.20;6.60;;;9.80;90.90;;;;;;5013599;28;20052;-84
2022/11/04 05:21:28;;;;;;;18.00;6.57;;;9.80;91.00;;;;;;5023775;28;20128;-84
2022/11/04 05:23:53;;;;;;;18.23;7.20;;;9.80;90.90;;;;;;5026974;28;20057;-88
2022/11/04 05:26:19;;;;;;;16.77;6.85;;;9.80;90.90;;;;;;5008049;28;20061;-88
2022/11/04 05:28:45;;;;;;;20.88;7.25;;;9.80;90.80;;;;;;5025586;28;20065;-83
2022/11/04 05:31:10;;;;;;;22.30;6.88;;;9.90;90.80;;;;;;5018631;28;20057;-84
2022/11/04 05:33:36;;;;;;;19.42;7.05;;;9.80;90.80;;;;;;5007306;28;20053;-84
2022/11/04 05:36:13;;;;;;;22.33;7.00;;;9.90;90.80;;;;;;5019819;28;20034;-86
2022/11/04 05:38:39;;;;;;;18.20;6.80;;;9.90;90.80;;;;;;5007370;28;20389;-84
2022/11/04 05:41:07;;;;;;;17.75;6.65;;;9.90;90.80;;;;;;5007083;28;20086;-88
2022/11/04 05:43:33;;;;;;;19.25;7.50;;;9.90;90.70;;;;;;5008970;28;20053;-85
2022/11/04 05:45:59;;;;;;;17.08;7.88;;;9.90;90.70;;;;;;5009578;28;20484;-83
2022/11/04 05:48:25;;;;;;;16.65;7.70;;;9.90;90.70;;;;;;5010812;28;20366;-85
2022/11/04 05:50:51;;;;;;;18.17;7.68;;;9.90;90.80;;;;;;5016971;28;20038;-83
2022/11/04 05:53:16;;;;;;;18.75;7.35;;;10.00;90.90;;;;;;5024630;28;20046;-85
2022/11/04 05:55:42;;;;;;;17.13;6.75;;;9.90;90.80;;;;;;5028272;28;20049;-85
2022/11/04 05:58:08;;;;;;;14.27;6.63;;;10.00;90.70;;;;;;5028640;28;20045;-85
2022/11/04 06:00:33;;;;;;;15.98;6.85;;;10.00;90.80;;;;;;5048065;28;20505;-89
2022/11/04 06:02:59;;;;;;;16.35;6.68;;;10.00;90.80;;;;;;5039491;28;20033;-86
2022/11/04 06:05:26;;;;;;;14.05;6.25;;;10.00;90.90;;;;;;5048084;28;20033;-85
2022/11/04 06:07:52;;;;;;;18.63;6.80;;;10.10;90.90;;;;;;5061792;28;20044;-84
2022/11/04 06:10:17;;;;;;;17.05;6.50;;;10.10;90.90;;;;;;5029883;28;20037;-83
2022/11/04 06:12:43;;;;;;;14.52;6.38;;;10.10;90.90;;;;;;5036501;28;20046;-85
2022/11/04 06:15:09;;;;;;;12.35;5.78;;;10.00;91.00;;;;;;5034587;28;20033;-82
2022/11/04 06:17:35;;;;;;;20.17;6.95;;;10.00;91.00;;;;;;5035277;28;20486;-84
2022/11/04 06:20:00;;;;;;;15.95;7.15;;;10.10;91.10;;;;;;5035583;28;20128;-85
2022/11/04 06:22:26;;;;;;;17.77;6.65;;;10.10;91.10;;;;;;5024137;28;20459;-85
2022/11/04 06:24:53;;;;;;;14.05;6.25;;;10.10;91.10;;;;;;5028519;28;20050;-84
2022/11/04 06:27:19;;;;;;;16.83;7.05;;;10.00;91.10;;;;;;5007540;28;20119;-84
2022/11/04 06:29:46;;;;;;;14.73;6.80;;;10.00;91.20;;;;;;5012232;28;20447;-84
2022/11/04 06:32:14;;;;;;;15.52;7.03;;;10.00;91.30;;;;;;5025166;28;20033;-87
2022/11/04 06:34:40;;;;;;;17.67;8.07;;;10.00;91.30;;;;;;5027358;28;20037;-84
2022/11/04 06:37:07;;;;;;;13.45;6.90;;;10.00;91.40;;;;;;5009592;28;20476;-84
2022/11/04 06:39:33;;;;;;;18.00;7.30;;;10.00;91.40;;;;;;5013784;28;20056;-87
2022/11/04 06:41:58;;;;;;;17.98;6.70;;;10.00;91.40;;;;;;5030619;28;20540;-87
2022/11/04 06:44:24;;;;;;;17.33;7.10;;;10.00;91.40;;;;;;5029362;28;20058;-83
2022/11/04 06:46:50;;;;;;;17.65;6.97;;;10.00;91.10;;;;;;5016927;28;20080;-87
2022/11/04 06:49:19;;;;;;;17.02;6.32;;;10.00;91.00;;;;;;5047620;28;20051;-82
2022/11/04 06:51:48;;;;;;;17.88;6.45;;;10.00;91.00;;;;;;5039235;28;20056;-82
2022/11/04 06:54:14;;;;;;;15.68;7.72;;;10.00;91.10;;;;;;5026323;28;20030;-92
2022/11/04 06:56:41;;;;;;;14.23;6.53;;;9.90;91.20;;;;;;5048467;28;20040;-85
2022/11/04 06:59:08;;;;;;;17.80;6.95;;;9.90;91.30;;;;;;5029106;28;20094;-90
2022/11/04 07:01:35;;;;;;;15.50;7.10;;;10.00;91.40;;;;;;5017980;28;20041;-85
2022/11/04 07:04:02;;;;;;;15.32;6.55;;;10.00;91.50;;;;;;5021920;28;20183;-85
2022/11/04 07:06:28;;;;;;;12.75;6.40;;;10.00;91.60;;;;;;5011518;28;20040;-87
2022/11/04 07:08:59;;;;;;;13.30;6.53;;;10.10;91.60;;;;;;5032748;28;20119;-85
2022/11/04 07:11:29;;;;;;;13.35;6.75;;;10.10;91.70;;;;;;5016427;28;20034;-86
2022/11/04 07:13:55;;;;;;;16.20;7.22;;;10.10;91.70;;;;;;5031487;28;20057;-84
2022/11/04 07:16:20;;;;;;;14.02;7.45;;;10.10;91.80;;;;;;5027378;28;20551;-85
2022/11/04 07:18:48;;;;;;;13.93;7.00;;;10.10;91.70;;;;;;5032278;28;20048;-86
2022/11/04 07:21:13;;;;;;;12.07;6.50;;;10.10;91.80;;;;;;5009704;28;20396;-87
2022/11/04 07:23:39;;;;;;;16.63;8.57;;;10.20;91.80;;;;;;5009653;28;20049;-86
2022/11/04 07:26:07;;;;;;;22.73;8.73;;;10.20;91.80;;;;;;5011420;28;20030;-88
2022/11/04 07:28:33;;;;;;;14.10;7.53;;;10.30;91.80;;;;;;5033255;28;20523;-85
2022/11/04 07:31:00;;;;;;;15.70;8.00;;;10.30;91.50;;;;;;5032051;28;20036;-85
2022/11/04 07:33:26;;;;;;;18.10;9.63;;;10.30;91.60;;;;;;5018093;28;20045;-86
2022/11/04 07:35:52;;;;;;;25.48;10.45;;;10.30;91.60;;;;;;5028852;28;20113;-88
2022/11/04 07:38:19;;;;;;;20.02;12.68;;;10.20;91.50;;;;;;5008656;28;20087;-85
2022/11/04 07:40:45;;;;;;;18.30;10.60;;;10.30;91.60;;;;;;5022868;28;20084;-85
2022/11/04 07:43:10;;;;;;;22.40;10.38;;;10.30;91.70;;;;;;5026977;28;20065;-85
2022/11/04 07:45:36;;;;;;;21.98;11.90;;;10.30;91.70;;;;;;5008940;28;20486;-85
2022/11/04 07:48:02;;;;;;;16.23;9.52;;;10.30;91.70;;;;;;5028185;28;20050;-88
2022/11/04 07:50:27;;;;;;;20.25;10.63;;;10.30;91.70;;;;;;5006494;28;20033;-85
2022/11/04 07:52:53;;;;;;;28.20;16.77;;;10.40;91.70;;;;;;5004296;28;20049;-85
2022/11/04 07:55:18;;;;;;;18.52;9.68;;;10.40;91.80;;;;;;5008871;28;20057;-84
2022/11/04 07:57:45;;;;;;;20.40;10.13;;;10.50;91.70;;;;;;5029392;28;20124;-83
2022/11/04 08:00:13;;;;;;;20.17;8.85;;;10.50;91.60;;;;;;5023967;28;20201;-86
2022/11/04 08:02:39;;;;;;;16.02;9.38;;;10.60;91.40;;;;;;5007467;28;20386;-86
2022/11/04 08:05:05;;;;;;;15.93;8.43;;;10.60;91.40;;;;;;5023587;28;20111;-86
2022/11/04 08:07:31;;;;;;;17.67;8.15;;;10.60;91.20;;;;;;5006193;28;20045;-88
2022/11/04 08:09:57;;;;;;;15.32;8.50;;;10.60;91.30;;;;;;5021206;28;20033;-84
2022/11/04 08:12:23;;;;;;;16.05;9.05;;;10.80;91.30;;;;;;5003027;28;20050;-84
2022/11/04 08:14:49;;;;;;;18.58;9.00;;;10.90;91.10;;;;;;5008961;28;20042;-86
2022/11/04 08:17:15;;;;;;;20.58;9.32;;;10.90;91.00;;;;;;5021571;28;20250;-89
2022/11/04 08:19:41;;;;;;;16.63;8.80;;;11.10;90.90;;;;;;5008378;28;20029;-90
2022/11/04 08:22:07;;;;;;;14.75;8.00;;;11.10;90.80;;;;;;5023433;28;20076;-85
2022/11/04 08:24:33;;;;;;;20.02;8.65;;;11.30;90.70;;;;;;5025335;28;20508;-86
2022/11/04 08:26:59;;;;;;;16.90;7.22;;;11.40;90.30;;;;;;5026012;28;20095;-87
2022/11/04 08:29:25;;;;;;;16.67;7.22;;;11.40;89.80;;;;;;5007067;28;20657;-84
2022/11/04 08:31:50;;;;;;;17.60;7.50;;;11.50;89.30;;;;;;5024631;28;20026;-84
2022/11/04 08:34:17;;;;;;;14.77;6.55;;;11.60;89.50;;;;;;5022540;28;20042;-84
2022/11/04 08:36:44;;;;;;;15.38;6.80;;;11.70;89.20;;;;;;5006863;28;20413;-84
2022/11/04 08:39:10;;;;;;;14.27;6.25;;;11.80;89.00;;;;;;5018617;28;20129;-80
2022/11/04 08:41:37;;;;;;;19.33;7.15;;;11.90;88.10;;;;;;5022279;28;20060;-80
2022/11/04 08:44:04;;;;;;;13.50;6.13;;;11.90;87.80;;;;;;5019927;28;20506;-82
2022/11/04 08:46:33;;;;;;;16.17;6.18;;;12.00;87.40;;;;;;5013537;28;20056;-81
2022/11/04 08:48:59;;;;;;;15.30;5.82;;;12.10;86.80;;;;;;5020328;28;20069;-83
2022/11/04 08:51:27;;;;;;;20.95;6.60;;;12.30;86.40;;;;;;5023738;28;20113;-80
2022/11/04 08:53:53;;;;;;;17.73;6.57;;;12.40;86.40;;;;;;5007070;28;20400;-81
2022/11/04 08:56:28;;;;;;;16.17;6.20;;;12.30;85.00;;;;;;5003736;28;20511;-81
2022/11/04 08:58:55;;;;;;;14.20;5.65;;;12.20;85.40;;;;;;5019185;28;20421;-80
2022/11/04 09:01:21;;;;;;;12.90;5.90;;;12.10;85.80;;;;;;5010619;28;20578;-77
2022/11/04 09:03:48;;;;;;;19.25;6.80;;;12.10;86.10;;;;;;5021650;28;20056;-82
2022/11/04 09:06:18;;;;;;;16.38;6.82;;;12.10;86.20;;;;;;5016016;28;20063;-83
2022/11/04 09:08:45;;;;;;;20.80;7.78;;;12.10;86.20;;;;;;5020147;28;20033;-81
2022/11/04 09:11:13;;;;;;;17.77;8.98;;;12.10;86.40;;;;;;4996561;28;20084;-79
2022/11/04 09:13:38;;;;;;;23.27;10.60;;;11.90;85.90;;;;;;4995545;28;20088;-80
2022/11/04 09:16:05;;;;;;;20.15;10.25;;;11.90;86.40;;;;;;5000264;28;20041;-80
2022/11/04 09:18:30;;;;;;;21.13;10.88;;;11.90;86.80;;;;;;5018301;28;20060;-83
2022/11/04 09:21:04;;;;;;;25.23;11.77;;;11.90;86.70;;;;;;5022014;28;20045;-79
2022/11/04 09:23:30;;;;;;;18.50;11.90;;;11.90;87.00;;;;;;4996570;28;20052;-80
2022/11/04 09:25:57;;;;;;;20.27;12.38;;;11.80;87.20;;;;;;5017433;28;20033;-83
2022/11/04 09:28:24;;;;;;;17.50;12.30;;;11.70;87.20;;;;;;5021826;28;20029;-79
2022/11/04 09:30:50;;;;;;;19.50;11.88;;;11.70;87.30;;;;;;5019980;28;20040;-79
2022/11/04 09:33:16;;;;;;;19.67;11.43;;;11.70;87.60;;;;;;5024406;28;20037;-79
2022/11/04 09:35:42;;;;;;;20.55;12.00;;;11.70;87.50;;;;;;5005283;28;20075;-79
2022/11/04 09:38:08;;;;;;;23.00;12.10;;;11.70;87.40;;;;;;5021633;28;20384;-82
2022/11/04 09:40:36;;;;;;;17.83;10.55;;;11.70;87.30;;;;;;5019481;28;20673;-82
2022/11/04 09:43:23;;;;;;;19.90;11.13;;;11.60;87.50;;;;;;5015706;28;20041;-79
2022/11/04 09:45:48;;;;;;;20.10;10.38;;;11.60;87.80;;;;;;5017607;28;20037;-79
2022/11/04 09:48:37;;;;;;;24.25;11.10;;;11.60;87.70;;;;;;5002511;28;20042;-80
2022/11/04 09:51:05;;;;;;;19.48;9.77;;;11.70;87.70;;;;;;4999849;28;20111;-80
2022/11/04 09:53:48;;;;;;;16.05;9.65;;;11.60;86.90;;;;;;4992857;28;20061;-82
2022/11/04 09:56:27;;;;;;;21.38;9.40;;;11.70;86.80;;;;;;5020107;28;20489;-83
2022/11/04 09:58:53;;;;;;;22.85;9.15;;;11.70;86.10;;;;;;5014135;28;20519;-82
2022/11/04 10:01:26;;;;;;;18.48;10.45;;;11.70;86.00;;;;;;5016985;28;20052;-80
2022/11/04 10:04:24;;;;;;;18.33;8.70;;;11.80;85.90;;;;;;5009882;28;20041;-83
2022/11/04 10:07:04;;;;;;;17.38;10.32;;;11.70;85.40;;;;;;5016630;28;20042;-81
2022/11/04 10:09:53;;;;;;;14.93;10.25;;;11.70;85.00;;;;;;5019433;28;20041;-81
2022/11/04 10:12:46;;;;;;;18.30;10.77;;;11.60;85.20;;;;;;5018559;28;20038;-82
2022/11/04 10:15:37;;;;;;;22.73;12.25;;;11.50;85.60;;;;;;5015369;28;20041;-83
2022/11/04 10:18:33;;;;;;;17.42;11.80;;;11.60;86.20;;;;;;5019311;28;20039;-81
2022/11/04 10:21:19;;;;;;;19.83;11.88;;;11.50;86.10;;;;;;5020437;28;20108;-80
2022/11/04 10:24:09;;;;;;;17.15;12.93;;;11.60;86.40;;;;;;5003205;28;20048;-84
2022/11/04 10:26:51;;;;;;;20.83;12.35;;;11.70;86.30;;;;;;4992209;28;20489;-81
2022/11/04 10:29:27;;;;;;;18.02;12.60;;;11.60;85.60;;;;;;5003721;28;20038;-79
2022/11/04 10:31:57;;;;;;;18.77;13.40;;;11.60;86.00;;;;;;5025600;28;20509;-79
2022/11/04 10:34:38;;;;;;;19.20;12.50;;;11.70;85.90;;;;;;5025036;28;20469;-81
2022/11/04 10:37:11;;;;;;;17.50;12.38;;;11.70;85.80;;;;;;5006321;28;20072;-81
2022/11/04 10:39:45;;;;;;;17.55;14.80;;;11.60;86.20;;;;;;5006205;28;20052;-82
2022/11/04 10:42:14;;;;;;;23.90;16.00;;;11.60;86.00;;;;;;5011925;28;20099;-81
2022/11/04 10:44:40;;;;;;;19.33;11.68;;;11.60;86.70;;;;;;5024899;28;20053;-78
2022/11/04 10:47:21;;;;;;;17.42;12.35;;;11.50;86.40;;;;;;5024391;28;20047;-80
2022/11/04 10:49:53;;;;;;;22.50;13.07;;;11.50;86.60;;;;;;5025830;28;20124;-83
2022/11/04 10:52:19;;;;;;;19.90;13.45;;;11.50;86.60;;;;;;5024428;28;20397;-82
2022/11/04 10:54:47;;;;;;;23.83;16.10;;;11.40;87.00;;;;;;5010164;28;20030;-79
2022/11/04 10:57:19;;;;;;;21.73;15.00;;;11.50;87.00;;;;;;5009079;28;20859;-80
2022/11/04 11:00:04;;;;;;;18.52;13.57;;;11.50;87.00;;;;;;5024973;28;20056;-81
2022/11/04 11:02:35;;;;;;;20.08;13.38;;;11.60;87.30;;;;;;5005244;28;20089;-82
2022/11/04 11:05:17;;;;;;;18.13;13.65;;;11.60;87.20;;;;;;5014675;28;20096;-82
2022/11/04 11:07:43;;;;;;;18.45;13.05;;;11.60;87.40;;;;;;4995877;28;20560;-80
2022/11/04 11:10:31;;;;;;;19.25;13.60;;;11.70;87.20;;;;;;5017050;28;20060;-79
2022/11/04 11:13:22;;;;;;;19.80;13.68;;;11.70;87.00;;;;;;5016896;28;20026;-81
2022/11/04 11:15:48;;;;;;;16.45;13.20;;;11.80;87.20;;;;;;5015136;28;20933;-80
2022/11/04 11:18:17;;;;;;;20.02;13.68;;;11.90;86.90;;;;;;4996040;28;20079;-80
2022/11/04 11:20:49;;;;;;;19.80;13.40;;;11.90;86.60;;;;;;4996201;28;20049;-80
2022/11/04 11:23:42;;;;;;;16.05;12.45;;;12.10;86.90;;;;;;4998304;28;20355;-79
2022/11/04 11:26:15;;;;;;;19.13;12.70;;;12.20;85.90;;;;;;5011369;28;20136;-80
2022/11/04 11:28:48;;;;;;;17.55;12.18;;;12.20;85.10;;;;;;4999230;28;20064;-84
2022/11/04 11:31:23;;;;;;;17.55;11.27;;;12.40;85.30;;;;;;5013199;28;20417;-85
2022/11/04 11:33:56;;;;;;;13.75;11.68;;;12.50;84.70;;;;;;5015806;28;20560;-80
2022/11/04 11:36:30;;;;;;;14.73;10.68;;;12.50;83.90;;;;;;4997607;28;20128;-80
2022/11/04 11:39:04;;;;;;;15.13;11.63;;;12.60;84.40;;;;;;5016070;28;20057;-80
2022/11/04 11:41:46;;;;;;;15.02;11.45;;;12.70;84.20;;;;;;5015782;28;20065;-80
2022/11/04 11:44:31;;;;;;;16.85;9.80;;;12.70;83.70;;;;;;4996633;28;20489;-80
2022/11/04 11:47:01;;;;;;;;;;;12.70;83.40;;;;;;4996248;28;20398;-79
2022/11/04 11:49:30;;;;;;;13.52;8.65;;;12.80;83.90;;;;;;4996905;28;20011;-80
2022/11/04 11:52:16;;;;;;;14.52;8.27;;;12.90;83.10;;;;;;4996837;28;20032;-80
2022/11/04 11:54:44;;;;;;;10.15;6.88;;;13.10;83.00;;;;;;4999048;28;20037;-83
2022/11/04 11:57:35;;;;;;;13.15;6.72;;;13.10;81.80;;;;;;5017088;28;20057;-83
2022/11/04 12:00:09;;;;;;;14.30;7.30;;;12.90;81.00;;;;;;4993649;28;20038;-82
2022/11/04 12:03:01;;;;;;;14.57;7.60;;;13.00;81.60;;;;;;5000926;28;20038;-82
2022/11/04 12:05:38;;;;;;;10.20;6.25;;;12.90;81.50;;;;;;5021231;28;20053;-80
2022/11/04 12:08:40;;;;;;;10.52;6.65;;;13.00;81.00;;;;;;5017442;28;20030;-82
2022/11/04 12:11:34;;;;;;;10.73;6.15;;;13.10;81.30;;;;;;5019984;28;20537;-81
2022/11/04 12:14:09;;;;;;;11.77;6.03;;;13.10;81.00;;;;;;5020072;28;20038;-84
2022/11/04 12:16:51;;;;;;;11.45;6.60;;;13.20;81.20;;;;;;5020423;28;20046;-81
2022/11/04 12:19:28;;;;;;;11.70;6.60;;;13.30;81.70;;;;;;5019179;28;20388;-80
2022/11/04 12:22:16;;;;;;;11.05;6.22;;;13.30;81.20;;;;;;5022708;28;20159;-79
2022/11/04 12:24:54;;;;;;;11.15;6.05;;;13.40;81.00;;;;;;5018781;28;20064;-79
2022/11/04 12:27:36;;;;;;;10.85;6.60;;;13.30;81.20;;;;;;4998717;28;20034;-80
2022/11/04 12:30:13;;;;;;;10.77;4.75;;;13.40;82.00;;;;;;4993864;28;20128;-83
2022/11/04 12:32:53;;;;;;;12.18;6.32;;;13.40;79.80;;;;;;5014296;28;20481;-82
2022/11/04 12:35:50;;;;;;;11.20;6.20;;;13.20;79.70;;;;;;5016205;28;20033;-81
2022/11/04 12:38:18;;;;;;;16.75;10.05;;;13.20;79.80;;;;;;4999010;28;20368;-80
2022/11/04 12:40:52;;;;;;;12.10;6.78;;;13.10;79.80;;;;;;5022910;28;20105;-81
2022/11/04 12:43:33;;;;;;;9.50;4.28;;;13.10;79.80;;;;;;5025027;28;20080;-81
2022/11/04 12:46:16;;;;;;;7.70;3.58;;;13.10;79.80;;;;;;5023270;28;20041;-81
2022/11/04 12:49:00;;;;;;;9.43;4.88;;;13.10;78.50;;;;;;5020369;28;20040;-84
2022/11/04 12:51:41;;;;;;;9.02;4.03;;;13.00;79.10;;;;;;4998242;28;20037;-80
2022/11/04 12:54:40;;;;;;;10.32;4.72;;;13.00;79.40;;;;;;5002497;28;20302;-79
2022/11/04 12:57:12;;;;;;;8.57;3.70;;;13.10;79.30;;;;;;4997864;28;20034;-83
2022/11/04 13:00:15;;;;;;;8.07;3.58;;;13.20;79.50;;;;;;5022604;28;20107;-80
2022/11/04 13:02:50;;;;;;;7.75;3.55;;;13.20;79.50;;;;;;5015450;28;20080;-79
2022/11/04 13:05:38;;;;;;;7.57;3.10;;;13.30;79.60;;;;;;5000124;28;20048;-80
2022/11/04 13:08:31;;;;;;;7.85;3.40;;;13.40;78.70;;;;;;4999394;28;20048;-79
2022/11/04 13:11:21;;;;;;;7.78;3.45;;;13.30;79.00;;;;;;5014914;28;20095;-80
2022/11/04 13:14:01;;;;;;;10.25;4.07;;;13.30;79.20;;;;;;5017211;28;20071;-80
2022/11/04 13:16:30;;;;;;;6.80;3.42;;;13.30;79.30;;;;;;4996771;28;20037;-79
2022/11/04 13:18:57;;;;;;;8.35;3.40;;;13.40;79.60;;;;;;5013975;28;20030;-81
2022/11/04 13:21:26;;;;;;;7.88;3.55;;;13.50;79.10;;;;;;5010379;28;20053;-83
2022/11/04 13:24:03;;;;;;;6.63;2.40;;;13.60;79.60;;;;;;5001404;28;20084;-80
2022/11/04 13:26:29;;;;;;;6.60;2.30;;;13.50;78.00;;;;;;5018043;28;20037;-80
2022/11/04 13:29:28;;;;;;;6.05;2.10;;;13.50;76.30;;;;;;5008282;28;20034;-81
2022/11/04 13:32:03;;;;;;;3.85;1.80;;;13.40;75.30;;;;;;4965499;28;20038;-79
2022/11/04 13:35:00;;;;;;;7.10;2.92;;;13.40;73.60;;;;;;5024672;28;20037;-80
2022/11/04 13:37:34;;;;;;;6.00;2.17;;;13.30;71.60;;;;;;5024242;28;20044;-82
2022/11/04 13:40:18;;;;;;;4.13;1.63;;;13.20;72.00;;;;;;5018225;28;20537;-78